Wetterdaten: Freitag, 07.09.2012
Datum Zeit Temperatur Luftfeuchte Luftdruck Regen Wind Richtung Richtung Sonnenschein Taupunkt Windchill
07.09.2012 00:04 8,3 C 63 % 1024,7 hPa 0,0 l/m 0,0 km/h (0 Bft) W 275 0 min 1,7 C 8,3 C
07.09.2012 00:09 8,2 C 63 % 1024,7 hPa 0,0 l/m 0,0 km/h (0 Bft) W 275 0 min 1,6 C 8,2 C
07.09.2012 00:14 8,2 C 63 % 1024,7 hPa 0,0 l/m 0,0 km/h (0 Bft) W 275 0 min 1,6 C 8,2 C
07.09.2012 00:19 8,0 C 63 % 1024,7 hPa 0,0 l/m 0,0 km/h (0 Bft) W 275 0 min 1,4 C 8,0 C
07.09.2012 00:24 8,0 C 63 % 1024,7 hPa 0,0 l/m 0,0 km/h (0 Bft) W 275 0 min 1,4 C 8,0 C
07.09.2012 00:29 7,9 C 64 % 1024,7 hPa 0,0 l/m 0,0 km/h (0 Bft) W 275 0 min 1,5 C 7,9 C
07.09.2012 00:34 7,9 C 64 % 1024,7 hPa 0,0 l/m 0,0 km/h (0 Bft) W 275 0 min 1,5 C 7,9 C
07.09.2012 00:39 7,8 C 64 % 1024,7 hPa 0,0 l/m 0,0 km/h (0 Bft) W 275 0 min 1,4 C 7,8 C
07.09.2012 00:44 7,6 C 64 % 1024,7 hPa 0,0 l/m 0,0 km/h (0 Bft) W 275 0 min 1,2 C 7,6 C
07.09.2012 00:49 7,5 C 64 % 1024,7 hPa 0,0 l/m 0,0 km/h (0 Bft) W 275 0 min 1,1 C 7,5 C
07.09.2012 00:54 7,4 C 64 % 1024,7 hPa 0,0 l/m 0,0 km/h (0 Bft) W 275 0 min 1,0 C 7,4 C
07.09.2012 00:59 7,4 C 64 % 1024,7 hPa 0,0 l/m 0,0 km/h (0 Bft) W 275 0 min 1,0 C 7,4 C
07.09.2012 01:04 7,3 C 65 % 1024,7 hPa 0,0 l/m 0,0 km/h (0 Bft) W 275 0 min 1,2 C 7,3 C
07.09.2012 01:09 7,3 C 65 % 1024,7 hPa 0,0 l/m 0,0 km/h (0 Bft) W 275 0 min 1,2 C 7,3 C
07.09.2012 01:14 7,3 C 65 % 1024,7 hPa 0,0 l/m 0,0 km/h (0 Bft) W 275 0 min 1,2 C 7,3 C
07.09.2012 01:19 7,2 C 65 % 1025,7 hPa 0,0 l/m 0,0 km/h (0 Bft) W 275 0 min 1,1 C 7,2 C
07.09.2012 01:24 7,2 C 65 % 1025,7 hPa 0,0 l/m 0,0 km/h (0 Bft) W 275 0 min 1,1 C 7,2 C
07.09.2012 01:29 7,1 C 65 % 1024,7 hPa 0,0 l/m 0,0 km/h (0 Bft) W 275 0 min 1,0 C 7,1 C
07.09.2012 01:34 7,0 C 65 % 1024,7 hPa 0,0 l/m 0,0 km/h (0 Bft) W 275 0 min 0,9 C 7,0 C
07.09.2012 01:39 6,9 C 66 % 1024,7 hPa 0,0 l/m 0,0 km/h (0 Bft) W 275 0 min 1,0 C 6,9 C
07.09.2012 01:44 6,9 C 66 % 1024,7 hPa 0,0 l/m 0,0 km/h (0 Bft) W 275 0 min 1,0 C 6,9 C
07.09.2012 01:49 6,8 C 66 % 1024,7 hPa 0,0 l/m 0,0 km/h (0 Bft) W 275 0 min 0,9 C 6,8 C
07.09.2012 01:54 6,8 C 66 % 1025,7 hPa 0,0 l/m 0,0 km/h (0 Bft) W 275 0 min 0,9 C 6,8 C
07.09.2012 01:59 6,7 C 67 % 1024,7 hPa 0,0 l/m 0,0 km/h (0 Bft) W 275 0 min 1,0 C 6,7 C
07.09.2012 02:04 6,6 C 67 % 1025,7 hPa 0,0 l/m 0,0 km/h (0 Bft) W 275 0 min 0,9 C 6,6 C
07.09.2012 02:09 6,5 C 67 % 1024,7 hPa 0,0 l/m 0,0 km/h (0 Bft) W 275 0 min 0,8 C 6,5 C
07.09.2012 02:14 6,4 C 67 % 1024,7 hPa 0,0 l/m 0,0 km/h (0 Bft) W 275 0 min 0,7 C 6,4 C
07.09.2012 02:19 6,4 C 67 % 1024,7 hPa 0,0 l/m 0,0 km/h (0 Bft) W 275 0 min 0,7 C 6,4 C
07.09.2012 02:24 6,3 C 67 % 1024,7 hPa 0,0 l/m 0,0 km/h (0 Bft) W 275 0 min 0,6 C 6,3 C
07.09.2012 02:29 6,3 C 67 % 1024,7 hPa 0,0 l/m 0,0 km/h (0 Bft) W 275 0 min 0,6 C 6,3 C
07.09.2012 02:34 6,3 C 67 % 1024,7 hPa 0,0 l/m 0,0 km/h (0 Bft) W 275 0 min 0,6 C 6,3 C
07.09.2012 02:39 6,2 C 67 % 1024,7 hPa 0,0 l/m 0,0 km/h (0 Bft) W 275 0 min 0,5 C 6,2 C
07.09.2012 02:44 6,1 C 67 % 1024,7 hPa 0,0 l/m 0,0 km/h (0 Bft) W 275 0 min 0,4 C 6,1 C
07.09.2012 02:49 6,1 C 67 % 1024,7 hPa 0,0 l/m 0,0 km/h (0 Bft) W 275 0 min 0,4 C 6,1 C
07.09.2012 02:54 6,0 C 67 % 1024,7 hPa 0,0 l/m 0,0 km/h (0 Bft) W 275 0 min 0,3 C 6,0 C
07.09.2012 02:59 6,0 C 67 % 1024,7 hPa 0,0 l/m 0,0 km/h (0 Bft) W 275 0 min 0,3 C 6,0 C
07.09.2012 03:04 5,9 C 69 % 1024,7 hPa 0,0 l/m 0,0 km/h (0 Bft) W 275 0 min 0,7 C 5,9 C
07.09.2012 03:09 5,9 C 69 % 1024,7 hPa 0,0 l/m 0,0 km/h (0 Bft) W 275 0 min 0,7 C 5,9 C
07.09.2012 03:14 6,0 C 68 % 1024,7 hPa 0,0 l/m 0,0 km/h (0 Bft) W 275 0 min 0,6 C 6,0 C
07.09.2012 03:19 5,9 C 69 % 1024,7 hPa 0,0 l/m 0,0 km/h (0 Bft) W 275 0 min 0,7 C 5,9 C
07.09.2012 03:24 5,9 C 69 % 1024,7 hPa 0,0 l/m 0,0 km/h (0 Bft) W 275 0 min 0,7 C 5,9 C
07.09.2012 03:29 5,7 C 69 % 1024,7 hPa 0,0 l/m 0,0 km/h (0 Bft) W 275 0 min 0,5 C 5,7 C
07.09.2012 03:34 5,6 C 69 % 1024,7 hPa 0,0 l/m 0,0 km/h (0 Bft) W 275 0 min 0,4 C 5,6 C
07.09.2012 03:39 5,6 C 69 % 1024,7 hPa 0,0 l/m 0,0 km/h (0 Bft) W 275 0 min 0,4 C 5,6 C
07.09.2012 03:44 5,6 C 69 % 1024,7 hPa 0,0 l/m 0,0 km/h (0 Bft) W 275 0 min 0,4 C 5,6 C
07.09.2012 03:49 5,5 C 69 % 1024,7 hPa 0,0 l/m 0,0 km/h (0 Bft) W 275 0 min 0,3 C 5,5 C
07.09.2012 03:54 5,4 C 69 % 1024,7 hPa 0,0 l/m 0,0 km/h (0 Bft) W 275 0 min 0,2 C 5,4 C
07.09.2012 03:59 5,4 C 69 % 1024,7 hPa 0,0 l/m 0,0 km/h (0 Bft) W 275 0 min 0,2 C 5,4 C
07.09.2012 04:04 5,3 C 69 % 1024,7 hPa 0,0 l/m 0,0 km/h (0 Bft) W 275 0 min 0,1 C 5,3 C
07.09.2012 04:09 5,2 C 69 % 1024,7 hPa 0,0 l/m 0,0 km/h (0 Bft) W 275 0 min -0,0 C 5,2 C
07.09.2012 04:14 5,2 C 69 % 1024,7 hPa 0,0 l/m 0,0 km/h (0 Bft) W 275 0 min -0,0 C 5,2 C
07.09.2012 04:19 5,1 C 69 % 1024,7 hPa 0,0 l/m 0,0 km/h (0 Bft) W 275 0 min -0,1 C 5,1 C
07.09.2012 04:24 5,1 C 69 % 1024,7 hPa 0,0 l/m 0,0 km/h (0 Bft) W 275 0 min -0,1 C 5,1 C
07.09.2012 04:29 5,1 C 70 % 1024,7 hPa 0,0 l/m 0,0 km/h (0 Bft) W 275 0 min 0,1 C 5,1 C
07.09.2012 04:34 5,0 C 69 % 1024,7 hPa 0,0 l/m 0,0 km/h (0 Bft) W 275 0 min -0,2 C 5,0 C
07.09.2012 04:39 4,9 C 70 % 1024,7 hPa 0,0 l/m 0,0 km/h (0 Bft) W 275 0 min -0,1 C 4,9 C
07.09.2012 04:44 4,9 C 70 % 1024,7 hPa 0,0 l/m 0,0 km/h (0 Bft) W 275 0 min -0,1 C 4,9 C
07.09.2012 04:49 4,8 C 70 % 1024,7 hPa 0,0 l/m 0,0 km/h (0 Bft) W 275 0 min -0,2 C 4,8 C
07.09.2012 04:54 4,7 C 71 % 1024,7 hPa 0,0 l/m 0,0 km/h (0 Bft) W 275 0 min -0,1 C 4,7 C
07.09.2012 04:59 4,6 C 71 % 1024,7 hPa 0,0 l/m 0,0 km/h (0 Bft) W 275 0 min -0,2 C 4,6 C
07.09.2012 05:04 4,7 C 71 % 1024,7 hPa 0,0 l/m 0,0 km/h (0 Bft) W 275 0 min -0,1 C 4,7 C
07.09.2012 05:09 4,7 C 71 % 1024,7 hPa 0,0 l/m 0,0 km/h (0 Bft) W 275 0 min -0,1 C 4,7 C
07.09.2012 05:14 4,7 C 71 % 1024,7 hPa 0,0 l/m 0,0 km/h (0 Bft) W 275 0 min -0,1 C 4,7 C
07.09.2012 05:19 4,6 C 71 % 1024,7 hPa 0,0 l/m 0,0 km/h (0 Bft) W 275 0 min -0,2 C 4,6 C
07.09.2012 05:24 4,6 C 71 % 1024,7 hPa 0,0 l/m 0,0 km/h (0 Bft) W 275 0 min -0,2 C 4,6 C
07.09.2012 05:29 4,6 C 71 % 1024,7 hPa 0,0 l/m 0,0 km/h (0 Bft) W 275 0 min -0,2 C 4,6 C
07.09.2012 05:34 4,6 C 71 % 1024,7 hPa 0,0 l/m 0,0 km/h (0 Bft) W 275 0 min -0,2 C 4,6 C
07.09.2012 05:39 4,5 C 71 % 1024,7 hPa 0,0 l/m 0,0 km/h (0 Bft) W 275 0 min -0,3 C 4,5 C
07.09.2012 05:44 4,4 C 71 % 1024,7 hPa 0,0 l/m 0,0 km/h (0 Bft) W 275 0 min -0,4 C 4,4 C
07.09.2012 05:49 4,3 C 71 % 1024,7 hPa 0,0 l/m 0,0 km/h (0 Bft) W 275 0 min -0,5 C 4,3 C
07.09.2012 05:54 4,3 C 71 % 1024,7 hPa 0,0 l/m 0,0 km/h (0 Bft) W 275 0 min -0,5 C 4,3 C
07.09.2012 05:59 4,2 C 71 % 1024,7 hPa 0,0 l/m 0,0 km/h (0 Bft) W 275 0 min -0,6 C 4,2 C
07.09.2012 06:04 4,2 C 71 % 1024,7 hPa 0,0 l/m 0,0 km/h (0 Bft) W 275 0 min -0,6 C 4,2 C
07.09.2012 06:09 4,2 C 71 % 1024,7 hPa 0,0 l/m 0,0 km/h (0 Bft) W 275 0 min -0,6 C 4,2 C
07.09.2012 06:14 4,2 C 71 % 1024,7 hPa 0,0 l/m 0,0 km/h (0 Bft) W 275 0 min -0,6 C 4,2 C
07.09.2012 06:19 4,2 C 71 % 1024,7 hPa 0,0 l/m 0,0 km/h (0 Bft) W 275 0 min -0,6 C 4,2 C
07.09.2012 06:24 4,1 C 71 % 1024,7 hPa 0,0 l/m 0,0 km/h (0 Bft) W 275 0 min -0,7 C 4,1 C
07.09.2012 06:29 4,1 C 71 % 1024,7 hPa 0,0 l/m 0,0 km/h (0 Bft) W 275 0 min -0,7 C 4,1 C
07.09.2012 06:34 4,0 C 71 % 1024,7 hPa 0,0 l/m 0,0 km/h (0 Bft) W 275 0 min -0,8 C 4,0 C
07.09.2012 06:39 4,0 C 71 % 1024,7 hPa 0,0 l/m 0,0 km/h (0 Bft) W 275 0 min -0,8 C 4,0 C
07.09.2012 06:44 4,0 C 71 % 1024,7 hPa 0,0 l/m 0,0 km/h (0 Bft) W 275 0 min -0,8 C 4,0 C
07.09.2012 06:49 4,0 C 72 % 1024,7 hPa 0,0 l/m 0,0 km/h (0 Bft) W 275 0 min -0,6 C 4,0 C
07.09.2012 06:54 4,0 C 72 % 1024,7 hPa 0,0 l/m 0,0 km/h (0 Bft) W 275 0 min -0,6 C 4,0 C
07.09.2012 06:59 4,0 C 72 % 1024,7 hPa 0,0 l/m 0,0 km/h (0 Bft) W 275 0 min -0,6 C 4,0 C
07.09.2012 07:04 4,0 C 72 % 1024,7 hPa 0,0 l/m 0,0 km/h (0 Bft) W 275 0 min -0,6 C 4,0 C
07.09.2012 07:09 4,0 C 72 % 1024,7 hPa 0,0 l/m 0,0 km/h (0 Bft) W 275 0 min -0,6 C 4,0 C
07.09.2012 07:14 4,1 C 72 % 1024,7 hPa 0,0 l/m 0,0 km/h (0 Bft) W 275 0 min -0,5 C 4,1 C
07.09.2012 07:19 4,3 C 72 % 1024,7 hPa 0,0 l/m 0,0 km/h (0 Bft) W 275 0 min -0,3 C 4,3 C
07.09.2012 07:24 4,6 C 73 % 1024,7 hPa 0,0 l/m 0,0 km/h (0 Bft) W 275 0 min 0,2 C 4,6 C
07.09.2012 07:29 4,7 C 73 % 1024,7 hPa 0,0 l/m 0,0 km/h (0 Bft) W 275 0 min 0,3 C 4,7 C
07.09.2012 07:34 4,9 C 73 % 1024,7 hPa 0,0 l/m 0,0 km/h (0 Bft) W 275 0 min 0,5 C 4,9 C
07.09.2012 07:39 5,3 C 73 % 1024,7 hPa 0,0 l/m 0,0 km/h (0 Bft) W 275 0 min 0,9 C 5,3 C
07.09.2012 07:44 5,6 C 74 % 1024,7 hPa 0,0 l/m 0,0 km/h (0 Bft) W 275 0 min 1,3 C 5,6 C
07.09.2012 07:49 6,7 C 76 % 1024,7 hPa 0,0 l/m 0,0 km/h (0 Bft) W 275 0 min 2,8 C 6,7 C
07.09.2012 07:54 7,6 C 76 % 1024,7 hPa 0,0 l/m 0,0 km/h (0 Bft) W 275 0 min 3,6 C 7,6 C
07.09.2012 07:59 8,1 C 75 % 1024,7 hPa 0,0 l/m 0,0 km/h (0 Bft) W 275 0 min 3,9 C 8,1 C
07.09.2012 08:04 8,4 C 75 % 1024,7 hPa 0,0 l/m 0,0 km/h (0 Bft) W 275 0 min 4,2 C 8,4 C
07.09.2012 08:09 9,3 C 74 % 1024,7 hPa 0,0 l/m 0,0 km/h (0 Bft) W 275 0 min 4,9 C 9,3 C
07.09.2012 08:14 9,1 C 70 % 1024,7 hPa 0,0 l/m 0,0 km/h (0 Bft) W 275 0 min 3,9 C 9,1 C
07.09.2012 08:19 8,6 C 69 % 1024,7 hPa 0,0 l/m 0,0 km/h (0 Bft) W 275 0 min 3,2 C 8,6 C
07.09.2012 08:24 8,4 C 69 % 1024,7 hPa 0,0 l/m 0,0 km/h (0 Bft) W 275 0 min 3,0 C 8,4 C
07.09.2012 08:29 8,5 C 68 % 1024,7 hPa 0,0 l/m 0,0 km/h (0 Bft) W 275 0 min 2,9 C 8,5 C
07.09.2012 08:34 8,6 C 68 % 1024,7 hPa 0,0 l/m 0,0 km/h (0 Bft) W 275 0 min 3,0 C 8,6 C
07.09.2012 08:39 8,9 C 68 % 1024,7 hPa 0,0 l/m 0,0 km/h (0 Bft) W 275 0 min 3,3 C 8,9 C
07.09.2012 08:44 9,1 C 67 % 1024,7 hPa 0,0 l/m 0,0 km/h (0 Bft) W 275 0 min 3,3 C 9,1 C
07.09.2012 08:49 9,2 C 67 % 1024,7 hPa 0,0 l/m 0,0 km/h (0 Bft) W 275 0 min 3,4 C 9,2 C
07.09.2012 08:54 9,3 C 67 % 1024,7 hPa 0,0 l/m 0,0 km/h (0 Bft) W 280 0 min 3,5 C 9,3 C
07.09.2012 08:59 9,6 C 68 % 1024,7 hPa 0,0 l/m 0,0 km/h (0 Bft) W 275 0 min 4,0 C 9,6 C
07.09.2012 09:04 10,0 C 67 % 1024,7 hPa 0,0 l/m 0,0 km/h (0 Bft) W 275 0 min 4,2 C 10,0 C
07.09.2012 09:09 10,2 C 67 % 1024,7 hPa 0,0 l/m 0,0 km/h (0 Bft) W 280 0 min 4,4 C 10,2 C
07.09.2012 09:14 10,5 C 67 % 1024,7 hPa 0,0 l/m 0,0 km/h (0 Bft) W 275 0 min 4,6 C 10,5 C
07.09.2012 09:19 11,0 C 66 % 1024,7 hPa 0,0 l/m 0,0 km/h (0 Bft) W-SW 255 0 min 4,9 C 11,0 C
07.09.2012 09:24 11,1 C 66 % 1024,7 hPa 0,0 l/m 0,0 km/h (0 Bft) W 265 0 min 5,0 C 11,1 C
07.09.2012 09:29 11,3 C 67 % 1024,7 hPa 0,0 l/m 0,0 km/h (0 Bft) W 265 0 min 5,4 C 11,3 C
07.09.2012 09:34 11,8 C 67 % 1024,7 hPa 0,0 l/m 0,0 km/h (0 Bft) W 265 0 min 5,9 C 11,8 C
07.09.2012 09:39 12,1 C 66 % 1024,7 hPa 0,0 l/m 0,0 km/h (0 Bft) W 260 0 min 5,9 C 12,1 C
07.09.2012 09:44 12,5 C 66 % 1024,7 hPa 0,0 l/m 0,0 km/h (0 Bft) W-SW 255 0 min 6,3 C 12,5 C
07.09.2012 09:49 12,6 C 66 % 1024,7 hPa 0,0 l/m 0,0 km/h (0 Bft) W 265 0 min 6,4 C 12,6 C
07.09.2012 09:54 13,0 C 65 % 1024,7 hPa 0,0 l/m 0,0 km/h (0 Bft) W 260 0 min 6,6 C 13,0 C
07.09.2012 09:59 13,3 C 66 % 1024,7 hPa 0,0 l/m 0,0 km/h (0 Bft) W 260 0 min 7,1 C 13,3 C
07.09.2012 10:04 13,8 C 66 % 1024,7 hPa 0,0 l/m 0,3 km/h (0 Bft) W 270 0 min 7,6 C 13,8 C
07.09.2012 10:09 14,2 C 64 % 1024,7 hPa 0,0 l/m 6,1 km/h (2 Bft) W 265 0 min 7,5 C 14,2 C
07.09.2012 10:14 14,4 C 64 % 1024,7 hPa 0,0 l/m 7,0 km/h (2 Bft) W 275 0 min 7,7 C 14,1 C
07.09.2012 10:19 14,9 C 64 % 1024,7 hPa 0,0 l/m 1,0 km/h (0 Bft) W-SW 255 0 min 8,2 C 14,9 C
07.09.2012 10:24 15,4 C 63 % 1024,7 hPa 0,0 l/m 7,1 km/h (2 Bft) W 270 0 min 8,4 C 15,0 C
07.09.2012 10:29 15,5 C 62 % 1024,7 hPa 0,0 l/m 8,2 km/h (2 Bft) W-NW 295 0 min 8,3 C 14,5 C
07.09.2012 10:34 15,7 C 60 % 1024,7 hPa 0,0 l/m 8,2 km/h (2 Bft) W-NW 295 0 min 8,0 C 14,7 C
07.09.2012 10:39 16,0 C 59 % 1024,7 hPa 0,0 l/m 8,8 km/h (2 Bft) NW 320 0 min 8,0 C 14,8 C
07.09.2012 10:44 16,2 C 59 % 1024,7 hPa 0,0 l/m 8,5 km/h (2 Bft) W-NW 290 0 min 8,2 C 15,1 C
07.09.2012 10:49 16,7 C 59 % 1024,7 hPa 0,0 l/m 4,7 km/h (1 Bft) W-SW 240 0 min 8,6 C 16,7 C
07.09.2012 10:54 16,9 C 58 % 1024,7 hPa 0,0 l/m 10,5 km/h (2 Bft) NW 305 0 min 8,6 C 15,0 C
07.09.2012 10:59 17,4 C 58 % 1024,7 hPa 0,0 l/m 7,8 km/h (2 Bft) SW 230 0 min 9,1 C 16,7 C
07.09.2012 11:04 17,5 C 55 % 1024,7 hPa 0,0 l/m 10,0 km/h (2 Bft) NW 320 0 min 8,4 C 15,9 C
07.09.2012 11:09 17,8 C 56 % 1024,7 hPa 0,0 l/m 8,8 km/h (2 Bft) W 275 0 min 8,9 C 16,7 C
07.09.2012 11:14 17,9 C 54 % 1023,7 hPa 0,0 l/m 10,2 km/h (2 Bft) NW 310 0 min 8,5 C 16,2 C
07.09.2012 11:19 18,0 C 53 % 1023,7 hPa 0,0 l/m 9,2 km/h (2 Bft) NW 310 0 min 8,3 C 16,7 C
07.09.2012 11:24 18,1 C 52 % 1023,7 hPa 0,0 l/m 10,8 km/h (2 Bft) NW 325 0 min 8,1 C 16,3 C
07.09.2012 11:29 18,2 C 51 % 1023,7 hPa 0,0 l/m 15,9 km/h (3 Bft) N-NW 340 0 min 7,9 C 14,8 C
07.09.2012 11:34 18,3 C 51 % 1024,7 hPa 0,0 l/m 12,6 km/h (3 Bft) NW 325 0 min 8,0 C 15,9 C
07.09.2012 11:39 18,5 C 51 % 1024,7 hPa 0,0 l/m 2,5 km/h (1 Bft) NW 305 0 min 8,2 C 18,5 C
07.09.2012 11:44 18,6 C 49 % 1024,7 hPa 0,0 l/m 16,2 km/h (3 Bft) N 350 0 min 7,7 C 15,2 C
07.09.2012 11:49 18,9 C 49 % 1024,7 hPa 0,0 l/m 14,4 km/h (3 Bft) NW 325 0 min 7,9 C 16,1 C
07.09.2012 11:54 19,0 C 47 % 1024,7 hPa 0,0 l/m 19,3 km/h (3 Bft) N-NW 340 0 min 7,4 C 15,1 C
07.09.2012 11:59 19,2 C 47 % 1024,7 hPa 0,0 l/m 14,7 km/h (3 Bft) NW 325 0 min 7,6 C 16,4 C
07.09.2012 12:04 19,5 C 49 % 1024,7 hPa 0,0 l/m 11,6 km/h (2 Bft) NW 310 0 min 8,5 C 17,6 C
07.09.2012 12:09 19,8 C 49 % 1024,7 hPa 0,0 l/m 7,0 km/h (2 Bft) W 270 0 min 8,8 C 19,6 C
07.09.2012 12:14 20,0 C 47 % 1024,7 hPa 0,0 l/m 12,6 km/h (3 Bft) N-NW 330 0 min 8,3 C 17,9 C
07.09.2012 12:19 20,0 C 47 % 1023,7 hPa 0,0 l/m 12,0 km/h (2 Bft) W-NW 300 0 min 8,3 C 18,0 C
07.09.2012 12:24 20,2 C 47 % 1023,7 hPa 0,0 l/m 11,1 km/h (2 Bft) N-NW 330 0 min 8,5 C 18,5 C
07.09.2012 12:29 20,3 C 46 % 1023,7 hPa 0,0 l/m 12,9 km/h (3 Bft) NW 315 0 min 8,3 C 18,1 C
07.09.2012 12:34 20,6 C 46 % 1023,7 hPa 0,0 l/m 11,6 km/h (2 Bft) W-NW 290 0 min 8,6 C 18,8 C
07.09.2012 12:38 20,8 C 47 % 1023,7 hPa 0,0 l/m 8,4 km/h (2 Bft) W 265 0 min 9,1 C 20,0 C
07.09.2012 12:44 21,1 C 45 % 1023,7 hPa 0,0 l/m 15,1 km/h (3 Bft) NW 305 0 min 8,7 C 18,6 C
07.09.2012 12:49 21,2 C 44 % 1023,7 hPa 0,0 l/m 13,3 km/h (3 Bft) NW 320 0 min 8,5 C 19,1 C
07.09.2012 12:54 21,3 C 44 % 1023,7 hPa 0,0 l/m 11,4 km/h (2 Bft) W-NW 290 0 min 8,5 C 19,7 C
07.09.2012 12:59 21,7 C 45 % 1023,7 hPa 0,0 l/m 8,3 km/h (2 Bft) W 270 0 min 9,2 C 21,0 C
07.09.2012 13:05 22,0 C 41 % 1023,7 hPa 0,0 l/m 10,6 km/h (2 Bft) W-NW 285 0 min 8,1 C 20,7 C
07.09.2012 13:10 22,0 C 40 % 1023,7 hPa 0,0 l/m 13,5 km/h (3 Bft) W-NW 285 0 min 7,8 C 20,0 C
07.09.2012 13:15 22,0 C 41 % 1023,7 hPa 0,0 l/m 10,8 km/h (2 Bft) NW 315 0 min 8,1 C 20,6 C
07.09.2012 13:20 22,1 C 42 % 1023,7 hPa 0,0 l/m 14,2 km/h (3 Bft) NW 315 0 min 8,6 C 20,0 C
07.09.2012 13:25 22,3 C 40 % 1023,7 hPa 0,0 l/m 2,4 km/h (1 Bft) W-SW 255 0 min 8,0 C 22,3 C
07.09.2012 13:30 22,5 C 41 % 1023,7 hPa 0,0 l/m 8,7 km/h (2 Bft) W-NW 290 0 min 8,6 C 21,8 C
07.09.2012 13:34 22,8 C 39 % 1023,7 hPa 0,0 l/m 14,5 km/h (3 Bft) NW 320 0 min 8,1 C 20,7 C
07.09.2012 13:39 22,9 C 40 % 1023,7 hPa 0,0 l/m 15,7 km/h (3 Bft) NW 315 0 min 8,6 C 20,6 C
07.09.2012 13:44 23,0 C 36 % 1023,7 hPa 0,0 l/m 13,5 km/h (3 Bft) W-NW 300 0 min 7,1 C 21,2 C
07.09.2012 13:49 23,1 C 37 % 1023,7 hPa 0,0 l/m 14,1 km/h (3 Bft) W-NW 295 0 min 7,6 C 21,2 C
07.09.2012 13:54 23,3 C 34 % 1023,7 hPa 0,0 l/m 17,3 km/h (3 Bft) NW 320 0 min 6,6 C 20,9 C
07.09.2012 13:59 23,5 C 34 % 1023,7 hPa 0,0 l/m 16,7 km/h (3 Bft) N-NW 340 0 min 6,7 C 21,2 C
07.09.2012 14:04 23,8 C 35 % 1023,7 hPa 0,0 l/m 14,5 km/h (3 Bft) NW 325 0 min 7,4 C 21,9 C
07.09.2012 14:09 24,0 C 33 % 1023,7 hPa 0,0 l/m 14,3 km/h (3 Bft) W-NW 300 0 min 6,7 C 22,2 C
07.09.2012 14:14 24,1 C 29 % 1023,7 hPa 0,0 l/m 15,8 km/h (3 Bft) N-NW 345 0 min 4,9 C 22,1 C
07.09.2012 14:19 24,0 C 28 % 1023,7 hPa 0,0 l/m 13,3 km/h (3 Bft) N-NW 340 0 min 4,4 C 22,4 C
07.09.2012 14:24 24,1 C 26 % 1023,7 hPa 0,0 l/m 21,0 km/h (4 Bft) N-NW 340 0 min 3,4 C 21,4 C
07.09.2012 14:29 24,2 C 26 % 1023,7 hPa 0,0 l/m 18,5 km/h (3 Bft) N-NW 340 0 min 3,5 C 21,8 C
07.09.2012 14:34 24,2 C 26 % 1023,7 hPa 0,0 l/m 22,3 km/h (4 Bft) N-NW 335 0 min 3,5 C 21,4 C
07.09.2012 14:39 24,4 C 25 % 1023,7 hPa 0,0 l/m 19,3 km/h (3 Bft) N-NW 330 0 min 3,1 C 22,0 C
07.09.2012 14:44 24,5 C 26 % 1023,7 hPa 0,0 l/m 15,5 km/h (3 Bft) N-NW 330 0 min 3,7 C 22,6 C
07.09.2012 14:49 24,5 C 26 % 1023,7 hPa 0,0 l/m 17,8 km/h (3 Bft) N-NW 340 0 min 3,7 C 22,3 C
07.09.2012 14:54 24,7 C 26 % 1022,7 hPa 0,0 l/m 19,1 km/h (3 Bft) N-NW 335 0 min 3,9 C 22,4 C
07.09.2012 14:59 24,8 C 26 % 1022,7 hPa 0,0 l/m 22,3 km/h (4 Bft) N-NW 330 0 min 4,0 C 22,2 C
07.09.2012 15:04 24,9 C 26 % 1022,7 hPa 0,0 l/m 22,3 km/h (4 Bft) N-NW 330 0 min 4,1 C 22,3 C
07.09.2012 15:09 24,6 C 25 % 1023,7 hPa 0,0 l/m 15,8 km/h (3 Bft) N-NW 335 0 min 3,3 C 22,7 C
07.09.2012 15:14 24,8 C 26 % 1022,7 hPa 0,0 l/m 16,9 km/h (3 Bft) N-NW 340 0 min 4,0 C 22,8 C
07.09.2012 15:19 24,9 C 26 % 1023,7 hPa 0,0 l/m 18,7 km/h (3 Bft) N-NW 340 0 min 4,1 C 22,7 C
07.09.2012 15:24 24,8 C 26 % 1022,7 hPa 0,0 l/m 18,6 km/h (3 Bft) NW 325 0 min 4,0 C 22,6 C
07.09.2012 15:29 25,0 C 26 % 1022,7 hPa 0,0 l/m 16,8 km/h (3 Bft) N-NW 335 0 min 4,2 C 23,1 C
07.09.2012 15:34 25,3 C 26 % 1022,7 hPa 0,0 l/m 20,1 km/h (4 Bft) N-NW 335 0 min 4,4 C 23,0 C
07.09.2012 15:39 25,4 C 26 % 1022,7 hPa 0,0 l/m 18,3 km/h (3 Bft) N-NW 340 0 min 4,5 C 23,4 C
07.09.2012 15:44 25,8 C 27 % 1022,7 hPa 0,0 l/m 19,3 km/h (3 Bft) N-NW 340 0 min 5,4 C 23,8 C
07.09.2012 15:49 26,1 C 26 % 1022,7 hPa 0,0 l/m 13,8 km/h (3 Bft) N-NW 330 0 min 5,1 C 24,8 C
07.09.2012 15:54 26,2 C 26 % 1022,7 hPa 0,0 l/m 16,3 km/h (3 Bft) N-NW 340 0 min 5,2 C 24,6 C
07.09.2012 15:59 26,5 C 26 % 1022,7 hPa 0,0 l/m 26,3 km/h (4 Bft) N-NW 335 0 min 5,4 C 24,1 C
07.09.2012 16:04 26,3 C 25 % 1022,7 hPa 0,0 l/m 26,3 km/h (4 Bft) N-NW 335 0 min 4,7 C 23,8 C
07.09.2012 16:09 26,0 C 26 % 1022,7 hPa 0,0 l/m 22,9 km/h (4 Bft) N 350 0 min 5,0 C 23,7 C
07.09.2012 16:14 25,9 C 25 % 1022,7 hPa 0,0 l/m 26,6 km/h (4 Bft) N-NW 345 0 min 4,4 C 23,3 C
07.09.2012 16:19 25,8 C 25 % 1022,7 hPa 0,0 l/m 15,8 km/h (3 Bft) N-NW 340 0 min 4,3 C 24,2 C
07.09.2012 16:24 25,1 C 25 % 1022,7 hPa 0,0 l/m 22,8 km/h (4 Bft) N-NW 345 0 min 3,7 C 22,5 C
07.09.2012 16:29 25,1 C 25 % 1022,7 hPa 0,0 l/m 26,6 km/h (4 Bft) N-NW 345 0 min 3,7 C 22,2 C
07.09.2012 16:34 24,5 C 27 % 1022,7 hPa 0,0 l/m 18,0 km/h (3 Bft) N-NW 345 0 min 4,3 C 22,3 C
07.09.2012 16:39 24,5 C 27 % 1022,7 hPa 0,0 l/m 15,0 km/h (3 Bft) N-NW 340 0 min 4,3 C 22,7 C
07.09.2012 16:44 23,5 C 28 % 1022,7 hPa 0,0 l/m 18,1 km/h (3 Bft) N-NW 345 0 min 3,9 C 21,0 C
07.09.2012 16:49 23,3 C 29 % 1022,7 hPa 0,0 l/m 14,6 km/h (3 Bft) N-NW 340 0 min 4,3 C 21,3 C
07.09.2012 16:54 23,9 C 30 % 1022,7 hPa 0,0 l/m 13,0 km/h (3 Bft) N-NW 330 0 min 5,3 C 22,3 C
07.09.2012 16:59 24,7 C 28 % 1022,7 hPa 0,0 l/m 17,3 km/h (3 Bft) N-NW 345 0 min 5,0 C 22,6 C
07.09.2012 17:04 24,8 C 27 % 1022,7 hPa 0,0 l/m 24,3 km/h (4 Bft) N 350 0 min 4,5 C 22,0 C
07.09.2012 17:09 24,9 C 28 % 1022,7 hPa 0,0 l/m 16,5 km/h (3 Bft) N-NW 330 0 min 5,1 C 23,0 C
07.09.2012 17:14 24,6 C 29 % 1022,7 hPa 0,0 l/m 15,8 km/h (3 Bft) N-NW 330 0 min 5,4 C 22,7 C
07.09.2012 17:19 24,6 C 29 % 1022,7 hPa 0,0 l/m 22,0 km/h (4 Bft) N-NW 340 0 min 5,4 C 21,9 C
07.09.2012 17:24 24,0 C 29 % 1022,7 hPa 0,0 l/m 23,1 km/h (4 Bft) N 350 0 min 4,9 C 21,0 C
07.09.2012 17:29 24,2 C 30 % 1022,7 hPa 0,0 l/m 22,9 km/h (4 Bft) N-NW 345 0 min 5,5 C 21,3 C
07.09.2012 17:34 24,2 C 30 % 1022,7 hPa 0,0 l/m 21,3 km/h (4 Bft) N 350 0 min 5,5 C 21,5 C
07.09.2012 17:39 24,5 C 31 % 1022,7 hPa 0,0 l/m 19,1 km/h (3 Bft) N 350 0 min 6,3 C 22,1 C
07.09.2012 17:44 24,3 C 30 % 1022,7 hPa 0,0 l/m 22,1 km/h (4 Bft) N-NW 345 0 min 5,6 C 21,5 C
07.09.2012 17:49 24,4 C 30 % 1022,7 hPa 0,0 l/m 14,0 km/h (3 Bft) N 350 0 min 5,7 C 22,7 C
07.09.2012 17:54 24,4 C 30 % 1022,7 hPa 0,0 l/m 16,7 km/h (3 Bft) N-NW 340 0 min 5,7 C 22,3 C
07.09.2012 17:59 24,5 C 30 % 1022,7 hPa 0,0 l/m 10,0 km/h (2 Bft) NW 320 0 min 5,8 C 23,6 C
07.09.2012 18:04 24,5 C 30 % 1022,7 hPa 0,0 l/m 12,4 km/h (3 Bft) NW 320 0 min 5,8 C 23,1 C
07.09.2012 18:09 24,3 C 30 % 1022,7 hPa 0,0 l/m 17,7 km/h (3 Bft) N-NW 330 0 min 5,6 C 22,1 C
07.09.2012 18:14 24,0 C 31 % 1022,7 hPa 0,0 l/m 13,0 km/h (3 Bft) NW 325 0 min 5,8 C 22,4 C
07.09.2012 18:19 23,9 C 32 % 1022,7 hPa 0,0 l/m 14,8 km/h (3 Bft) N-NW 335 0 min 6,2 C 22,0 C
07.09.2012 18:24 23,8 C 32 % 1022,7 hPa 0,0 l/m 15,7 km/h (3 Bft) NW 325 0 min 6,1 C 21,7 C
07.09.2012 18:29 23,6 C 32 % 1022,7 hPa 0,0 l/m 14,8 km/h (3 Bft) N-NW 335 0 min 5,9 C 21,6 C
07.09.2012 18:34 23,5 C 33 % 1022,7 hPa 0,0 l/m 18,5 km/h (3 Bft) N-NW 330 0 min 6,3 C 20,9 C
07.09.2012 18:39 23,3 C 32 % 1022,7 hPa 0,0 l/m 15,6 km/h (3 Bft) N-NW 335 0 min 5,7 C 21,1 C
07.09.2012 18:44 23,3 C 32 % 1022,7 hPa 0,0 l/m 14,6 km/h (3 Bft) N-NW 330 0 min 5,7 C 21,3 C
07.09.2012 18:49 23,1 C 32 % 1022,7 hPa 0,0 l/m 11,1 km/h (2 Bft) NW 325 0 min 5,5 C 21,8 C
07.09.2012 18:54 22,9 C 34 % 1022,7 hPa 0,0 l/m 13,1 km/h (3 Bft) N-NW 340 0 min 6,2 C 21,1 C
07.09.2012 18:59 22,9 C 34 % 1022,7 hPa 0,0 l/m 13,6 km/h (3 Bft) NW 315 0 min 6,2 C 21,0 C
07.09.2012 19:04 22,6 C 34 % 1022,7 hPa 0,0 l/m 10,6 km/h (2 Bft) NW 320 0 min 5,9 C 21,4 C
07.09.2012 19:09 22,4 C 34 % 1022,7 hPa 0,0 l/m 12,7 km/h (3 Bft) N-NW 330 0 min 5,8 C 20,6 C
07.09.2012 19:14 22,2 C 35 % 1022,7 hPa 0,0 l/m 8,4 km/h (2 Bft) N-NW 330 0 min 6,0 C 21,5 C
07.09.2012 19:19 22,0 C 35 % 1022,7 hPa 0,0 l/m 9,2 km/h (2 Bft) NW 325 0 min 5,8 C 21,1 C
07.09.2012 19:24 21,7 C 36 % 1022,7 hPa 0,0 l/m 6,6 km/h (2 Bft) W-NW 290 0 min 6,0 C 21,6 C
07.09.2012 19:29 21,5 C 36 % 1022,7 hPa 0,0 l/m 5,5 km/h (1 Bft) W 275 0 min 5,8 C 21,5 C
07.09.2012 19:34 21,2 C 37 % 1022,7 hPa 0,0 l/m 7,7 km/h (2 Bft) NW 320 0 min 5,9 C 20,7 C
07.09.2012 19:39 20,9 C 39 % 1022,7 hPa 0,0 l/m 9,4 km/h (2 Bft) NW 325 0 min 6,4 C 19,8 C
07.09.2012 19:45 20,7 C 39 % 1022,7 hPa 0,0 l/m 9,8 km/h (2 Bft) NW 315 0 min 6,2 C 19,5 C
07.09.2012 19:50 20,5 C 39 % 1022,7 hPa 0,0 l/m 5,3 km/h (1 Bft) W-NW 290 0 min 6,1 C 20,5 C
07.09.2012 19:55 20,3 C 40 % 1022,7 hPa 0,0 l/m 10,5 km/h (2 Bft) W-NW 295 0 min 6,3 C 18,8 C
07.09.2012 20:00 20,1 C 40 % 1022,7 hPa 0,0 l/m 5,6 km/h (1 Bft) W-NW 295 0 min 6,1 C 20,1 C
07.09.2012 20:05 19,7 C 40 % 1022,7 hPa 0,0 l/m 4,5 km/h (1 Bft) W 265 0 min 5,7 C 19,7 C
07.09.2012 20:10 19,4 C 40 % 1022,7 hPa 0,0 l/m 0,2 km/h (0 Bft) W-SW 250 0 min 5,5 C 19,4 C
07.09.2012 20:14 19,0 C 40 % 1022,7 hPa 0,0 l/m 0,0 km/h (0 Bft) W-SW 245 0 min 5,1 C 19,0 C
07.09.2012 20:19 18,9 C 41 % 1022,7 hPa 0,0 l/m 4,8 km/h (1 Bft) W-SW 250 0 min 5,4 C 18,9 C
07.09.2012 20:24 18,7 C 41 % 1022,7 hPa 0,0 l/m 0,0 km/h (0 Bft) W-SW 245 0 min 5,2 C 18,7 C
07.09.2012 20:29 18,3 C 41 % 1022,7 hPa 0,0 l/m 0,0 km/h (0 Bft) W-SW 245 0 min 4,8 C 18,3 C
07.09.2012 20:34 18,1 C 41 % 1022,7 hPa 0,0 l/m 0,0 km/h (0 Bft) W-SW 245 0 min 4,6 C 18,1 C
07.09.2012 20:39 17,8 C 42 % 1022,7 hPa 0,0 l/m 0,0 km/h (0 Bft) W-SW 245 0 min 4,7 C 17,8 C
07.09.2012 20:44 17,6 C 42 % 1022,7 hPa 0,0 l/m 0,0 km/h (0 Bft) W-SW 245 0 min 4,5 C 17,6 C
07.09.2012 20:49 17,4 C 43 % 1022,7 hPa 0,0 l/m 0,0 km/h (0 Bft) W-SW 240 0 min 4,7 C 17,4 C
07.09.2012 20:54 17,3 C 43 % 1022,7 hPa 0,0 l/m 0,0 km/h (0 Bft) W-SW 245 0 min 4,6 C 17,3 C
07.09.2012 20:59 17,0 C 43 % 1022,7 hPa 0,0 l/m 0,0 km/h (0 Bft) W-SW 245 0 min 4,3 C 17,0 C
07.09.2012 21:04 16,8 C 45 % 1022,7 hPa 0,0 l/m 0,0 km/h (0 Bft) W-SW 245 0 min 4,8 C 16,8 C
07.09.2012 21:09 16,7 C 45 % 1022,7 hPa 0,0 l/m 0,0 km/h (0 Bft) W-SW 245 0 min 4,7 C 16,7 C
07.09.2012 21:14 16,4 C 45 % 1023,7 hPa 0,0 l/m 0,0 km/h (0 Bft) W-SW 245 0 min 4,4 C 16,4 C
07.09.2012 21:19 16,3 C 45 % 1023,7 hPa 0,0 l/m 0,0 km/h (0 Bft) W-SW 245 0 min 4,3 C 16,3 C
07.09.2012 21:24 16,2 C 45 % 1023,7 hPa 0,0 l/m 0,0 km/h (0 Bft) W-SW 245 0 min 4,3 C 16,2 C
07.09.2012 21:29 16,0 C 46 % 1023,7 hPa 0,0 l/m 0,0 km/h (0 Bft) W-SW 245 0 min 4,4 C 16,0 C
07.09.2012 21:34 16,0 C 48 % 1023,7 hPa 0,0 l/m 0,0 km/h (0 Bft) W-SW 245 0 min 5,0 C 16,0 C
07.09.2012 21:39 16,0 C 48 % 1023,7 hPa 0,0 l/m 0,0 km/h (0 Bft) W-SW 245 0 min 5,0 C 16,0 C
07.09.2012 21:44 15,8 C 48 % 1023,7 hPa 0,0 l/m 0,0 km/h (0 Bft) W-SW 250 0 min 4,8 C 15,8 C
07.09.2012 21:49 15,6 C 48 % 1023,7 hPa 0,0 l/m 0,0 km/h (0 Bft) W-SW 245 0 min 4,6 C 15,6 C
07.09.2012 21:54 15,3 C 48 % 1023,7 hPa 0,0 l/m 0,0 km/h (0 Bft) W-SW 245 0 min 4,4 C 15,3 C
07.09.2012 21:59 15,2 C 49 % 1023,7 hPa 0,0 l/m 0,0 km/h (0 Bft) W-SW 245 0 min 4,6 C 15,2 C
07.09.2012 22:04 14,9 C 49 % 1023,7 hPa 0,0 l/m 0,0 km/h (0 Bft) W-SW 245 0 min 4,3 C 14,9 C
07.09.2012 22:09 14,7 C 49 % 1023,7 hPa 0,0 l/m 0,0 km/h (0 Bft) W-SW 245 0 min 4,1 C 14,7 C
07.09.2012 22:14 14,7 C 50 % 1023,7 hPa 0,0 l/m 0,0 km/h (0 Bft) W-SW 245 0 min 4,4 C 14,7 C
07.09.2012 22:19 14,5 C 50 % 1023,7 hPa 0,0 l/m 0,0 km/h (0 Bft) W-SW 240 0 min 4,2 C 14,5 C
07.09.2012 22:24 14,4 C 50 % 1023,7 hPa 0,0 l/m 0,0 km/h (0 Bft) W-SW 240 0 min 4,1 C 14,4 C
07.09.2012 22:29 14,4 C 50 % 1023,7 hPa 0,0 l/m 0,0 km/h (0 Bft) W-SW 240 0 min 4,1 C 14,4 C
07.09.2012 22:34 14,2 C 50 % 1023,7 hPa 0,0 l/m 0,0 km/h (0 Bft) W-SW 240 0 min 3,9 C 14,2 C
07.09.2012 22:39 14,1 C 50 % 1023,7 hPa 0,0 l/m 0,0 km/h (0 Bft) W-SW 240 0 min 3,8 C 14,1 C
07.09.2012 22:44 13,9 C 51 % 1023,7 hPa 0,0 l/m 0,0 km/h (0 Bft) W-SW 240 0 min 3,9 C 13,9 C
07.09.2012 22:49 13,8 C 52 % 1023,7 hPa 0,0 l/m 0,0 km/h (0 Bft) W-SW 240 0 min 4,1 C 13,8 C
07.09.2012 22:54 13,7 C 52 % 1023,7 hPa 0,0 l/m 0,0 km/h (0 Bft) W-SW 240 0 min 4,0 C 13,7 C
07.09.2012 22:59 13,6 C 52 % 1023,7 hPa 0,0 l/m 0,0 km/h (0 Bft) W-SW 240 0 min 3,9 C 13,6 C
07.09.2012 23:04 13,5 C 52 % 1023,7 hPa 0,0 l/m 0,0 km/h (0 Bft) W-SW 240 0 min 3,8 C 13,5 C
07.09.2012 23:09 13,5 C 53 % 1023,7 hPa 0,0 l/m 0,0 km/h (0 Bft) W-SW 240 0 min 4,1 C 13,5 C
07.09.2012 23:14 13,4 C 53 % 1023,7 hPa 0,0 l/m 0,0 km/h (0 Bft) W-SW 240 0 min 4,0 C 13,4 C
07.09.2012 23:19 13,4 C 53 % 1023,7 hPa 0,0 l/m 0,0 km/h (0 Bft) W-SW 240 0 min 4,0 C 13,4 C
07.09.2012 23:24 13,2 C 53 % 1023,7 hPa 0,0 l/m 0,0 km/h (0 Bft) W-SW 240 0 min 3,8 C 13,2 C
07.09.2012 23:29 13,0 C 53 % 1023,7 hPa 0,0 l/m 0,0 km/h (0 Bft) W-SW 240 0 min 3,6 C 13,0 C
07.09.2012 23:34 13,0 C 54 % 1023,7 hPa 0,0 l/m 0,0 km/h (0 Bft) W-SW 240 0 min 3,9 C 13,0 C
07.09.2012 23:39 12,9 C 55 % 1023,7 hPa 0,0 l/m 0,0 km/h (0 Bft) W-SW 240 0 min 4,1 C 12,9 C
07.09.2012 23:44 12,8 C 55 % 1023,7 hPa 0,0 l/m 0,0 km/h (0 Bft) W-SW 240 0 min 4,0 C 12,8 C
07.09.2012 23:49 12,7 C 55 % 1023,7 hPa 0,0 l/m 0,0 km/h (0 Bft) W-SW 240 0 min 3,9 C 12,7 C
07.09.2012 23:54 12,7 C 55 % 1023,7 hPa 0,0 l/m 0,0 km/h (0 Bft) W-SW 240 0 min 3,9 C 12,7 C
07.09.2012 23:59 12,6 C 56 % 1023,7 hPa 0,0 l/m 0,0 km/h (0 Bft) W-SW 240 0 min 4,1 C 12,6 C
_ Min-Zeit 00:04 14:39 14:54 - 00:04 - - - 06:34 06:34
Minimum _ 0,0 C 25 % 1022,7 hPa - 0,0 km/h (0 Bft) - - - -0,8 C 4,0 C
_ Max-Zeit 15:59 07:49 01:19 00:04 16:14 - - 00:04 12:59 15:49
Maximum _ 26,5 C 76 % 1025,7 hPa 0,0 l/m 26,6 km/h
N-NW (4 Bft)
- - 0 min 9,2 C 24,8 C
Durchschnitt _ 14,5 C 52 % 1024,0 hPa #0,0 l/m 5,9 km/h (2 Bft) N-NW - #0 min. 3,9 C 13,8 C